Time;durP1;ratioP1;P1;durP2;ratioP2;P2;SDS_P1;SDS_P2;PMS_P1;PMS_P2;Temp;Humidity;BMP_temperature;BMP_pressure;BME280_temperature;BME280_humidity;BME280_pressure;Samples;Min_cycle;Max_cycle;Signal;HPM_P1;HPM_P2
2022/04/08 00:03:49;;;;;;;0.63;0.10;;;8.90;64.40;;;;;;10341726;28;20042;-87
2022/04/08 00:08:51;;;;;;;2.72;0.10;;;8.90;64.40;;;;;;10335436;28;20054;-87
2022/04/08 00:13:53;;;;;;;1.73;0.20;;;8.90;64.70;;;;;;10320799;28;20098;-87
2022/04/08 00:18:56;;;;;;;7.22;0.30;;;8.90;65.10;;;;;;10348705;28;20034;-87
2022/04/08 00:23:58;;;;;;;1.60;0.20;;;8.80;65.10;;;;;;10336688;28;20022;-86
2022/04/08 00:29:00;;;;;;;5.05;0.20;;;8.90;65.30;;;;;;10345425;28;20066;-87
2022/04/08 00:34:01;;;;;;;3.88;0.20;;;8.90;65.30;;;;;;10320865;28;20052;-87
2022/04/08 00:39:03;;;;;;;2.80;0.17;;;8.90;65.80;;;;;;10343674;28;20052;-87
2022/04/08 00:44:06;;;;;;;0.08;0.00;;;8.90;66.70;;;;;;10328544;28;20060;-87
2022/04/08 00:49:07;;;;;;;4.40;0.25;;;8.80;69.20;;;;;;10326457;28;20129;-87
2022/04/08 00:54:10;;;;;;;3.33;0.10;;;8.50;76.00;;;;;;10366011;28;20058;-87
2022/04/08 00:59:11;;;;;;;1.80;0.20;;;8.20;81.70;;;;;;10345838;28;20073;-86
2022/04/08 01:04:13;;;;;;;5.03;0.17;;;8.10;86.20;;;;;;10339678;28;20057;-87
2022/04/08 01:09:16;;;;;;;1.08;0.10;;;7.80;91.70;;;;;;10346373;28;20145;-87
2022/04/08 01:14:17;;;;;;;1.00;0.00;;;7.50;94.70;;;;;;10348810;28;20054;-86
2022/04/08 01:19:19;;;;;;;0.00;0.00;;;7.30;96.50;;;;;;10337977;28;20046;-87
2022/04/08 01:24:23;;;;;;;0.60;0.00;;;7.10;98.50;;;;;;10329609;28;20058;-88
2022/04/08 01:29:25;;;;;;;0.25;0.17;;;6.90;98.60;;;;;;10325961;28;20064;-85
2022/04/08 01:34:26;;;;;;;0.00;0.00;;;6.80;99.30;;;;;;10335653;28;20145;-86
2022/04/08 01:39:28;;;;;;;0.13;0.00;;;6.70;99.90;;;;;;10329543;28;20045;-88
2022/04/08 01:44:30;;;;;;;0.00;0.00;;;6.70;99.90;;;;;;10327541;28;20050;-88
2022/04/08 01:49:33;;;;;;;0.47;0.10;;;6.60;99.90;;;;;;10330329;28;20120;-87
2022/04/08 01:54:34;;;;;;;0.55;0.30;;;6.60;99.90;;;;;;10337404;28;20057;-88
2022/04/08 01:59:36;;;;;;;0.00;0.00;;;6.50;99.90;;;;;;10330378;28;20058;-88
2022/04/08 02:04:38;;;;;;;1.48;0.10;;;6.50;99.90;;;;;;10349555;28;20058;-88
2022/04/08 02:09:40;;;;;;;0.00;0.00;;;6.50;99.90;;;;;;10325771;28;20416;-88
2022/04/08 02:14:42;;;;;;;0.15;0.10;;;6.60;99.90;;;;;;10326831;28;20045;-87
2022/04/08 02:19:44;;;;;;;0.10;0.00;;;6.50;99.90;;;;;;10331101;28;20050;-86
2022/04/08 02:24:49;;;;;;;0.60;0.00;;;6.40;99.90;;;;;;10310343;28;20049;-86
2022/04/08 02:29:51;;;;;;;0.17;0.05;;;6.30;99.90;;;;;;10312486;28;20048;-86
2022/04/08 02:34:52;;;;;;;0.10;0.10;;;6.10;99.90;;;;;;10329233;28;20046;-87
2022/04/08 02:39:54;;;;;;;0.10;0.00;;;6.10;99.90;;;;;;10322075;28;20052;-87
2022/04/08 02:44:57;;;;;;;0.28;0.10;;;6.00;99.90;;;;;;10318970;28;20127;-87
2022/04/08 02:49:59;;;;;;;0.00;0.00;;;6.00;99.90;;;;;;10313240;28;20050;-88
2022/04/08 02:55:01;;;;;;;0.40;0.30;;;6.00;99.90;;;;;;10315220;28;20081;-88
2022/04/08 03:00:03;;;;;;;4.07;0.40;;;6.00;99.90;;;;;;10323316;28;20050;-87
2022/04/08 03:05:06;;;;;;;0.50;0.10;;;6.10;99.90;;;;;;10315581;28;20057;-87
2022/04/08 03:10:10;;;;;;;0.28;0.10;;;6.10;99.90;;;;;;10324991;28;20054;-86
2022/04/08 03:15:12;;;;;;;0.52;0.20;;;6.10;99.90;;;;;;10322249;28;20404;-86
2022/04/08 03:20:14;;;;;;;0.82;0.20;;;6.10;99.90;;;;;;10332942;28;20760;-86
2022/04/08 03:25:16;;;;;;;0.40;0.15;;;6.00;99.90;;;;;;10319807;28;20046;-87
2022/04/08 03:30:18;;;;;;;3.30;0.65;;;6.00;99.90;;;;;;10328595;28;20054;-87
2022/04/08 03:35:20;;;;;;;2.15;0.25;;;6.00;99.90;;;;;;10319305;28;20501;-88
2022/04/08 03:40:23;;;;;;;5.28;0.25;;;6.00;99.90;;;;;;10334370;28;20078;-87
2022/04/08 03:45:24;;;;;;;0.45;0.22;;;6.10;99.90;;;;;;10323149;28;20053;-87
2022/04/08 03:50:26;;;;;;;0.20;0.20;;;6.10;99.90;;;;;;10327849;28;20042;-87
2022/04/08 03:55:28;;;;;;;0.95;0.25;;;6.10;99.90;;;;;;10333907;28;20049;-86
2022/04/08 04:00:30;;;;;;;0.80;0.25;;;6.10;99.90;;;;;;10324538;28;20480;-87
2022/04/08 04:05:35;;;;;;;0.65;0.22;;;6.10;99.90;;;;;;10325811;28;20046;-87
2022/04/08 04:10:37;;;;;;;0.40;0.20;;;6.10;99.90;;;;;;10331074;28;20065;-87
2022/04/08 04:15:38;;;;;;;1.95;0.32;;;6.10;99.90;;;;;;10345249;28;20045;-87
2022/04/08 04:20:41;;;;;;;2.30;0.30;;;6.10;99.90;;;;;;10347634;28;20128;-87
2022/04/08 04:25:42;;;;;;;2.92;0.60;;;6.20;99.90;;;;;;10328583;28;20049;-87
2022/04/08 04:30:45;;;;;;;0.30;0.17;;;6.20;99.90;;;;;;10320954;28;20042;-86
2022/04/08 04:35:46;;;;;;;1.65;0.30;;;6.10;99.90;;;;;;10338392;28;20100;-87
2022/04/08 04:40:49;;;;;;;1.13;0.30;;;6.10;99.90;;;;;;10320484;28;20412;-88
2022/04/08 04:45:50;;;;;;;1.33;0.30;;;6.20;99.90;;;;;;10345313;28;20057;-89
2022/04/08 04:50:54;;;;;;;3.13;0.30;;;6.20;99.90;;;;;;10337993;28;20057;-90
2022/04/08 04:55:56;;;;;;;1.05;0.20;;;6.30;99.90;;;;;;10330357;28;20046;-90
2022/04/08 05:00:58;;;;;;;0.68;0.25;;;6.50;99.90;;;;;;10324726;28;20123;-89
2022/04/08 05:06:00;;;;;;;2.58;0.20;;;6.50;99.90;;;;;;10333184;28;21598;-87
2022/04/08 05:11:02;;;;;;;0.65;0.30;;;6.50;99.90;;;;;;10343657;28;20042;-87
2022/04/08 05:16:04;;;;;;;2.20;0.20;;;6.60;99.90;;;;;;10352952;28;20077;-89
2022/04/08 05:21:06;;;;;;;0.20;0.10;;;6.60;99.90;;;;;;10318881;28;20042;-89
2022/04/08 05:26:08;;;;;;;4.28;0.30;;;6.60;99.90;;;;;;10351634;28;20052;-89
2022/04/08 05:31:09;;;;;;;0.20;0.10;;;6.60;98.70;;;;;;10341991;28;20042;-88
2022/04/08 05:36:11;;;;;;;0.45;0.15;;;6.60;99.70;;;;;;10316383;28;20051;-89
2022/04/08 05:41:19;;;;;;;0.55;0.17;;;6.60;99.60;;;;;;10316509;28;20092;-89
2022/04/08 05:46:21;;;;;;;0.15;0.10;;;6.60;99.80;;;;;;10317683;28;20066;-91
2022/04/08 05:51:23;;;;;;;0.63;0.40;;;6.60;99.70;;;;;;10347857;28;20049;-91
2022/04/08 05:56:41;;;;;;;0.25;0.10;;;6.60;99.90;;;;;;10352420;28;20049;-91
2022/04/08 06:01:42;;;;;;;1.75;0.30;;;6.60;99.90;;;;;;10343092;28;20050;-90
2022/04/08 06:06:44;;;;;;;1.73;0.10;;;6.70;99.90;;;;;;10334942;28;20065;-90
2022/04/08 06:11:48;;;;;;;0.28;0.10;;;6.80;99.90;;;;;;10331701;28;20559;-89
2022/04/08 06:16:51;;;;;;;1.08;0.17;;;6.60;99.90;;;;;;10335445;28;20052;-91
2022/04/08 06:21:54;;;;;;;0.57;0.30;;;6.60;99.90;;;;;;10351492;28;20505;-90
2022/04/08 06:26:56;;;;;;;0.43;0.20;;;6.70;99.90;;;;;;10332265;28;20049;-89
2022/04/08 06:31:58;;;;;;;0.90;0.20;;;6.70;99.90;;;;;;10319723;28;20041;-90
2022/04/08 06:37:00;;;;;;;1.27;1.17;;;6.70;99.90;;;;;;10355405;28;21291;-90
2022/04/08 06:42:02;;;;;;;2.72;0.65;;;6.80;99.90;;;;;;10350676;28;20149;-90
2022/04/08 06:47:04;;;;;;;0.95;0.30;;;7.00;99.90;;;;;;10331960;28;20074;-90
2022/04/08 06:52:13;;;;;;;3.88;0.30;;;7.10;99.90;;;;;;10332334;28;20057;-89
2022/04/08 06:57:16;;;;;;;5.38;0.60;;;7.10;99.90;;;;;;10332351;28;20054;-89
2022/04/08 07:02:17;;;;;;;7.15;1.02;;;7.30;99.90;;;;;;10323188;28;20449;-90
2022/04/08 07:07:19;;;;;;;1.70;0.30;;;7.20;99.90;;;;;;10312749;28;20467;-89
2022/04/08 07:12:21;;;;;;;2.10;0.70;;;7.30;99.90;;;;;;10310658;28;20052;-90
2022/04/08 07:17:30;;;;;;;1.23;0.30;;;7.40;99.90;;;;;;10317277;28;20073;-89
2022/04/08 07:22:51;;;;;;;2.38;0.30;;;7.30;99.90;;;;;;10303645;28;20141;-89
2022/04/08 07:27:58;;;;;;;1.27;0.50;;;7.40;99.90;;;;;;10325430;28;20077;-89
2022/04/08 07:33:01;;;;;;;1.67;0.40;;;7.40;99.90;;;;;;10344219;28;21358;-88
2022/04/08 07:38:05;;;;;;;4.78;0.25;;;7.40;99.90;;;;;;10339676;28;20103;-90
2022/04/08 07:43:07;;;;;;;2.55;0.30;;;7.50;99.90;;;;;;10335770;28;20500;-90
2022/04/08 07:48:09;;;;;;;3.20;0.57;;;7.50;99.90;;;;;;10323851;28;20136;-90
2022/04/08 07:53:11;;;;;;;5.03;0.50;;;7.60;99.90;;;;;;10321201;28;20071;-90
2022/04/08 07:58:12;;;;;;;2.03;0.30;;;7.70;99.90;;;;;;10328751;28;20042;-90
2022/04/08 08:03:19;;;;;;;3.33;0.88;;;7.80;99.90;;;;;;10332684;28;20046;-89
2022/04/08 08:08:21;;;;;;;2.60;0.40;;;7.90;99.90;;;;;;10340811;28;20560;-90
2022/04/08 08:13:23;;;;;;;5.03;0.38;;;7.90;99.30;;;;;;10336667;28;20086;-90
2022/04/08 08:18:25;;;;;;;1.65;0.50;;;8.00;99.90;;;;;;10327980;28;20065;-89
2022/04/08 08:23:27;;;;;;;1.02;0.47;;;8.10;99.80;;;;;;10337140;28;20746;-90
2022/04/08 08:28:29;;;;;;;6.82;0.55;;;8.20;99.90;;;;;;10319019;28;20038;-89
2022/04/08 08:33:31;;;;;;;6.85;0.60;;;8.10;99.00;;;;;;10346859;28;20484;-89
2022/04/08 08:38:33;;;;;;;5.15;0.40;;;8.10;98.40;;;;;;10349105;28;20038;-91
2022/04/08 08:43:36;;;;;;;7.60;0.45;;;8.10;97.20;;;;;;10341174;28;20471;-91
2022/04/08 08:48:38;;;;;;;4.57;0.40;;;8.20;97.90;;;;;;10339836;28;20045;-91
2022/04/08 08:53:41;;;;;;;8.57;0.82;;;8.30;98.40;;;;;;10335587;28;20052;-91
2022/04/08 08:58:43;;;;;;;5.78;0.43;;;8.20;99.20;;;;;;10358040;28;20113;-89
2022/04/08 09:03:45;;;;;;;12.15;1.40;;;8.30;99.70;;;;;;10338074;28;20073;-90
2022/04/08 09:08:59;;;;;;;2.05;0.70;;;8.30;98.40;;;;;;10328078;28;20051;-88
2022/04/08 09:14:03;;;;;;;2.45;0.68;;;8.20;99.90;;;;;;10330434;28;20181;-90
2022/04/08 09:19:13;;;;;;;2.75;0.50;;;8.30;99.90;;;;;;10337577;28;20046;-89
2022/04/08 09:24:15;;;;;;;8.15;0.60;;;8.30;99.90;;;;;;10331487;28;20082;-87
2022/04/08 09:29:19;;;;;;;8.07;0.70;;;8.10;99.90;;;;;;10321408;28;20054;-87
2022/04/08 09:34:21;;;;;;;13.25;0.70;;;8.10;99.90;;;;;;10330036;28;20038;-87
2022/04/08 09:39:23;;;;;;;3.60;0.93;;;8.10;99.90;;;;;;10339710;28;20504;-87
2022/04/08 09:44:25;;;;;;;3.25;0.70;;;8.00;99.90;;;;;;10316856;28;20064;-87
2022/04/08 09:49:27;;;;;;;8.35;1.00;;;7.90;99.90;;;;;;10338342;28;20049;-88
2022/04/08 09:54:30;;;;;;;4.20;0.55;;;7.80;99.90;;;;;;10314878;28;20037;-88
2022/04/08 09:59:35;;;;;;;10.52;0.68;;;7.70;99.90;;;;;;10326748;28;20071;-89
2022/04/08 10:05:00;;;;;;;5.40;0.55;;;7.70;99.90;;;;;;10318575;28;20057;-88
2022/04/08 10:10:38;;;;;;;4.28;1.65;;;7.70;99.90;;;;;;10316158;28;20076;-88
2022/04/08 10:15:54;;;;;;;4.20;0.77;;;7.80;99.90;;;;;;10331024;28;20042;-90
2022/04/08 10:20:59;;;;;;;10.02;0.88;;;7.90;99.90;;;;;;10335074;28;20056;-89
2022/04/08 10:26:02;;;;;;;3.42;0.65;;;7.40;99.90;;;;;;10344296;28;20050;-90
2022/04/08 10:31:24;;;;;;;5.03;1.52;;;7.30;99.90;;;;;;10322412;28;20062;-91
2022/04/08 10:36:37;;;;;;;4.75;0.93;;;7.40;99.90;;;;;;10315831;28;20045;-91
2022/04/08 10:41:51;;;;;;;10.45;1.00;;;7.50;99.90;;;;;;10336132;28;20050;-90
2022/04/08 10:46:53;;;;;;;6.10;0.80;;;7.60;99.90;;;;;;10326271;28;20067;-90
2022/04/08 10:51:55;;;;;;;4.55;0.80;;;7.40;99.90;;;;;;10345675;28;20070;-91
2022/04/08 10:56:58;;;;;;;6.85;1.20;;;7.50;99.90;;;;;;10329455;28;20050;-91
2022/04/08 11:02:05;;;;;;;6.15;1.27;;;7.50;99.90;;;;;;10338058;28;20062;-90
2022/04/08 11:07:07;;;;;;;2.65;0.30;;;7.60;99.90;;;;;;10330287;28;20139;-92
2022/04/08 11:12:10;;;;;;;6.25;0.70;;;7.30;99.90;;;;;;10334837;28;20101;-92
2022/04/08 11:17:13;;;;;;;2.67;0.25;;;7.10;99.90;;;;;;10330359;28;20130;-91
2022/04/08 11:22:15;;;;;;;3.38;0.40;;;6.90;99.90;;;;;;10335288;28;20126;-92
2022/04/08 11:27:16;;;;;;;1.35;0.20;;;6.90;99.90;;;;;;10334120;28;20047;-92
2022/04/08 11:32:19;;;;;;;0.35;0.20;;;6.70;99.90;;;;;;10337539;28;20055;-92
2022/04/08 11:37:28;;;;;;;3.13;0.10;;;6.40;99.90;;;;;;10333983;28;20050;-91
2022/04/08 11:42:31;;;;;;;0.05;0.05;;;6.30;99.90;;;;;;10299686;28;20052;-91
2022/04/08 11:47:40;;;;;;;0.68;0.20;;;6.30;99.90;;;;;;10303270;28;20508;-92
2022/04/08 11:52:56;;;;;;;1.85;0.13;;;6.20;99.90;;;;;;10306291;28;20054;-92
2022/04/08 11:58:27;;;;;;;0.40;0.20;;;6.20;99.90;;;;;;10097359;28;20110;-91
2022/04/08 12:03:36;;;;;;;4.05;0.20;;;6.20;99.90;;;;;;10036978;28;20077;-91
2022/04/08 12:08:50;;;;;;;0.55;0.20;;;6.10;99.90;;;;;;10040461;28;20105;-91
2022/04/08 12:14:30;;;;;;;5.10;0.20;;;6.20;99.90;;;;;;10042407;28;20652;-90
2022/04/08 12:19:52;;;;;;;1.05;0.10;;;6.20;99.90;;;;;;10156455;28;20097;-90
2022/04/08 12:24:54;;;;;;;0.75;0.20;;;6.30;99.90;;;;;;10199048;28;20053;-90
2022/04/08 12:30:11;;;;;;;0.20;0.10;;;6.30;99.90;;;;;;10145126;28;20054;-90
2022/04/08 12:35:27;;;;;;;1.52;0.20;;;6.20;99.90;;;;;;10187973;28;20057;-90
2022/04/08 12:40:46;;;;;;;0.52;0.10;;;6.30;99.90;;;;;;10210602;28;20403;-90
2022/04/08 12:45:49;;;;;;;0.20;0.20;;;6.10;99.90;;;;;;10339281;28;20064;-90
2022/04/08 12:50:51;;;;;;;1.15;0.10;;;6.10;99.90;;;;;;10283681;28;20554;-90
2022/04/08 12:55:53;;;;;;;0.43;0.10;;;6.00;99.90;;;;;;10313042;28;20084;-90
2022/04/08 13:00:57;;;;;;;0.22;0.13;;;5.80;99.90;;;;;;10314359;28;20069;-91
2022/04/08 13:05:59;;;;;;;2.58;0.10;;;5.80;99.90;;;;;;10331245;28;20076;-90
2022/04/08 13:11:02;;;;;;;0.55;0.13;;;5.80;99.90;;;;;;10332067;28;20371;-89
2022/04/08 13:16:04;;;;;;;2.72;0.10;;;5.70;99.90;;;;;;10291090;28;20049;-89
2022/04/08 13:21:09;;;;;;;0.50;0.10;;;5.40;99.90;;;;;;10339448;28;20053;-89
2022/04/08 13:26:13;;;;;;;0.00;0.00;;;5.40;99.90;;;;;;10325784;28;20136;-90
2022/04/08 13:31:16;;;;;;;0.00;0.00;;;5.20;99.90;;;;;;10290341;28;20113;-89
2022/04/08 13:36:18;;;;;;;0.10;0.00;;;4.90;99.90;;;;;;10209368;28;20186;-89
2022/04/08 13:41:21;;;;;;;0.00;0.00;;;4.90;99.90;;;;;;10280271;28;20030;-89
2022/04/08 13:46:23;;;;;;;0.10;0.05;;;5.00;99.90;;;;;;10279361;28;20037;-86
2022/04/08 13:51:25;;;;;;;0.10;0.05;;;4.90;99.90;;;;;;10314016;28;20057;-87
2022/04/08 13:56:28;;;;;;;1.38;0.10;;;4.90;99.90;;;;;;10342837;28;20046;-87
2022/04/08 14:01:30;;;;;;;0.22;0.05;;;4.90;99.90;;;;;;10286456;28;20106;-90
2022/04/08 14:06:35;;;;;;;2.13;0.15;;;4.80;99.90;;;;;;10262006;28;20054;-89
2022/04/08 14:11:38;;;;;;;0.38;0.10;;;4.80;99.90;;;;;;10290965;28;20058;-90
2022/04/08 14:16:40;;;;;;;0.20;0.10;;;4.80;99.90;;;;;;10281261;28;20053;-90
2022/04/08 14:21:42;;;;;;;0.60;0.10;;;4.80;99.90;;;;;;10296884;28;20093;-90
2022/04/08 14:26:50;;;;;;;0.15;0.08;;;4.90;99.90;;;;;;10214773;28;20119;-90
2022/04/08 14:31:52;;;;;;;0.30;0.13;;;4.90;99.90;;;;;;10307572;28;20077;-90
2022/04/08 14:36:55;;;;;;;0.10;0.00;;;4.90;99.90;;;;;;10315231;28;20062;-90
2022/04/08 14:41:57;;;;;;;0.35;0.15;;;4.90;99.90;;;;;;10316211;28;20050;-90
2022/04/08 14:46:59;;;;;;;0.35;0.10;;;4.90;99.90;;;;;;10329665;28;20113;-90
2022/04/08 14:52:01;;;;;;;0.30;0.17;;;4.90;99.90;;;;;;10326093;28;20050;-90
2022/04/08 14:57:03;;;;;;;1.38;0.10;;;4.80;99.90;;;;;;10318136;28;20169;-90
2022/04/08 15:02:05;;;;;;;0.05;0.05;;;4.80;99.90;;;;;;10323444;28;20110;-89
2022/04/08 15:07:13;;;;;;;0.25;0.13;;;4.80;99.90;;;;;;10293011;28;20054;-91
2022/04/08 15:12:17;;;;;;;0.20;0.13;;;4.70;99.90;;;;;;10320528;28;20056;-89
2022/04/08 15:17:20;;;;;;;0.32;0.10;;;4.70;99.90;;;;;;10328122;28;20142;-90
2022/04/08 15:22:23;;;;;;;0.20;0.10;;;4.60;99.90;;;;;;10324310;28;20058;-90
2022/04/08 15:27:41;;;;;;;0.10;0.10;;;4.60;99.90;;;;;;10328690;28;20077;-89
2022/04/08 15:32:44;;;;;;;0.20;0.10;;;4.50;99.90;;;;;;10321991;28;20047;-89
2022/04/08 15:37:47;;;;;;;0.60;0.10;;;4.50;99.90;;;;;;10327917;28;20134;-89
2022/04/08 15:42:49;;;;;;;0.03;0.03;;;4.50;99.90;;;;;;10348737;28;20077;-90
2022/04/08 15:47:51;;;;;;;0.55;0.10;;;4.50;99.90;;;;;;10329035;28;20046;-88
2022/04/08 15:52:53;;;;;;;0.17;0.10;;;4.60;99.90;;;;;;10330446;28;20062;-89
2022/04/08 15:57:55;;;;;;;0.47;0.10;;;5.10;99.90;;;;;;10337221;28;20105;-89
2022/04/08 16:02:57;;;;;;;0.50;0.10;;;4.60;99.90;;;;;;10324975;28;20061;-89
2022/04/08 16:07:59;;;;;;;0.20;0.10;;;4.70;99.90;;;;;;10289401;28;20062;-90
2022/04/08 16:13:04;;;;;;;0.10;0.10;;;4.70;99.90;;;;;;10305132;28;20089;-89
2022/04/08 16:18:07;;;;;;;0.10;0.10;;;4.70;99.90;;;;;;10324890;28;20050;-89
2022/04/08 16:23:09;;;;;;;0.40;0.10;;;4.70;99.90;;;;;;10332065;28;20081;-89
2022/04/08 16:28:12;;;;;;;0.08;0.05;;;4.70;99.90;;;;;;10336691;28;20088;-89
2022/04/08 16:33:14;;;;;;;0.20;0.10;;;4.60;99.90;;;;;;10331043;28;20049;-91
2022/04/08 16:38:30;;;;;;;0.20;0.10;;;4.70;99.90;;;;;;10305341;28;20053;-92
2022/04/08 16:43:41;;;;;;;0.03;0.03;;;4.60;99.90;;;;;;10214573;28;20047;-91
2022/04/08 16:48:45;;;;;;;2.13;0.20;;;4.60;99.90;;;;;;10274329;28;20045;-92
2022/04/08 16:53:53;;;;;;;2.70;0.55;;;4.60;99.90;;;;;;10273009;28;20073;-89
2022/04/08 16:59:56;;;;;;;0.50;0.30;;;4.50;99.90;;;;;;10266434;28;20185;-91
2022/04/08 17:06:09;;;;;;;;;;;4.50;99.90;;;;;;9980409;28;20036;-90
2022/04/08 17:12:01;;;;;;;0.10;0.10;;;4.40;99.90;;;;;;10036484;28;19986;-90
2022/04/08 17:17:52;;;;;;;0.68;0.43;;;4.40;99.90;;;;;;9951607;28;20118;-90
2022/04/08 17:23:30;;;;;;;1.95;0.43;;;4.40;99.90;;;;;;10058601;28;20078;-89
2022/04/08 17:28:34;;;;;;;1.00;0.50;;;4.40;99.90;;;;;;10274639;28;20042;-91
2022/04/08 17:33:50;;;;;;;1.23;0.40;;;4.30;99.90;;;;;;10240042;28;20063;-89
2022/04/08 17:38:51;;;;;;;1.90;0.30;;;4.20;99.90;;;;;;10273717;28;20054;-91
2022/04/08 17:43:54;;;;;;;0.50;0.22;;;4.20;99.90;;;;;;10295231;28;20077;-90
2022/04/08 17:49:02;;;;;;;0.45;0.30;;;4.40;99.90;;;;;;10260112;28;20126;-91
2022/04/08 17:54:05;;;;;;;0.43;0.40;;;4.20;99.90;;;;;;10312639;28;20061;-90
2022/04/08 17:59:10;;;;;;;1.77;0.40;;;4.20;99.90;;;;;;10213086;28;20050;-90
2022/04/08 18:04:12;;;;;;;4.18;0.80;;;4.10;99.90;;;;;;10231618;28;20056;-91
2022/04/08 18:09:14;;;;;;;1.40;0.60;;;4.10;99.90;;;;;;10256258;28;20042;-91
2022/04/08 18:14:18;;;;;;;5.15;0.63;;;4.10;99.90;;;;;;10343890;28;20081;-90
2022/04/08 18:19:25;;;;;;;1.67;0.68;;;4.10;99.90;;;;;;10347956;28;21688;-91
2022/04/08 18:24:27;;;;;;;1.95;0.32;;;4.00;99.90;;;;;;10355422;28;20038;-89
2022/04/08 18:29:29;;;;;;;1.00;0.43;;;3.90;99.90;;;;;;10324337;28;20056;-89
2022/04/08 18:34:51;;;;;;;1.98;0.68;;;3.90;99.90;;;;;;10327976;28;20047;-89
2022/04/08 18:39:53;;;;;;;0.98;0.40;;;3.90;99.90;;;;;;10346753;28;20046;-89
2022/04/08 18:44:56;;;;;;;1.75;0.70;;;3.80;99.90;;;;;;10334746;28;20053;-90
2022/04/08 18:49:59;;;;;;;1.95;0.63;;;3.80;99.90;;;;;;10324997;28;20054;-90
2022/04/08 18:55:01;;;;;;;1.17;0.57;;;3.80;99.90;;;;;;10343553;28;20096;-91
2022/04/08 19:00:08;;;;;;;2.58;1.17;;;3.80;99.90;;;;;;10340758;28;20038;-90
2022/04/08 19:05:11;;;;;;;3.08;0.85;;;3.80;99.90;;;;;;10330038;28;20408;-90
2022/04/08 19:10:13;;;;;;;2.10;0.90;;;3.80;99.90;;;;;;10302058;28;20539;-90
2022/04/08 19:15:15;;;;;;;2.65;1.10;;;3.70;99.90;;;;;;10320594;28;20050;-90
2022/04/08 19:20:18;;;;;;;1.83;0.73;;;3.70;99.90;;;;;;10319362;28;20045;-91
2022/04/08 19:25:26;;;;;;;3.10;0.90;;;3.70;99.90;;;;;;10350200;28;20744;-91
2022/04/08 19:30:28;;;;;;;2.72;0.93;;;3.60;99.90;;;;;;10320079;28;20046;-89
2022/04/08 19:35:30;;;;;;;2.50;1.10;;;3.60;99.90;;;;;;10345827;28;20049;-89
2022/04/08 19:40:32;;;;;;;1.83;0.73;;;3.60;99.90;;;;;;10338023;28;20109;-91
2022/04/08 19:45:35;;;;;;;1.90;0.85;;;3.70;99.90;;;;;;10341981;28;20503;-90
2022/04/08 19:50:37;;;;;;;1.17;0.40;;;3.70;99.90;;;;;;10336763;28;20046;-90
2022/04/08 19:55:42;;;;;;;2.17;0.50;;;3.70;99.90;;;;;;10356104;28;20050;-91
2022/04/08 20:00:51;;;;;;;0.82;0.32;;;3.70;99.90;;;;;;10315215;28;20048;-92
2022/04/08 20:06:07;;;;;;;0.63;0.28;;;3.80;99.90;;;;;;10237381;28;20049;-91
2022/04/08 20:11:27;;;;;;;0.77;0.30;;;3.80;99.90;;;;;;10282014;28;20046;-92
2022/04/08 20:16:34;;;;;;;1.88;0.70;;;3.80;99.90;;;;;;10249109;28;20049;-91
2022/04/08 20:21:37;;;;;;;0.60;0.32;;;3.80;99.90;;;;;;10313903;28;20065;-91
2022/04/08 20:26:39;;;;;;;1.48;0.40;;;3.80;99.90;;;;;;10283105;28;20073;-91
2022/04/08 20:31:42;;;;;;;1.17;0.30;;;3.70;99.90;;;;;;10307372;28;20140;-91
2022/04/08 20:36:55;;;;;;;1.48;0.40;;;3.70;99.90;;;;;;10325855;28;20046;-92
2022/04/08 20:42:04;;;;;;;1.25;0.70;;;3.70;99.90;;;;;;10348851;28;20056;-91
2022/04/08 20:47:06;;;;;;;3.35;0.95;;;3.70;99.90;;;;;;10342571;28;20441;-92
2022/04/08 20:52:10;;;;;;;0.65;0.45;;;3.80;99.90;;;;;;10295792;28;20108;-92
2022/04/08 20:57:15;;;;;;;2.75;0.40;;;3.70;99.90;;;;;;10328755;28;20074;-91
2022/04/08 21:02:25;;;;;;;0.82;0.40;;;3.80;99.90;;;;;;10309157;28;20061;-93
2022/04/08 21:07:29;;;;;;;2.08;1.10;;;3.80;99.90;;;;;;10320003;28;20089;-92
2022/04/08 21:12:34;;;;;;;4.63;0.85;;;3.80;99.90;;;;;;10324362;28;20061;-91
2022/04/08 21:17:39;;;;;;;2.78;1.05;;;3.80;99.90;;;;;;10339342;28;20034;-91
2022/04/08 21:22:41;;;;;;;2.58;0.70;;;3.80;99.90;;;;;;10332701;28;20045;-91
2022/04/08 21:27:48;;;;;;;2.25;0.77;;;3.70;99.90;;;;;;10332474;28;20060;-90
2022/04/08 21:32:51;;;;;;;2.55;0.88;;;3.70;99.90;;;;;;10302461;28;20050;-90
2022/04/08 21:38:03;;;;;;;2.88;1.05;;;3.70;99.90;;;;;;10225062;28;20485;-91
2022/04/08 21:43:18;;;;;;;1.45;1.00;;;3.70;99.90;;;;;;10261139;28;20721;-90
2022/04/08 21:48:20;;;;;;;4.80;1.40;;;3.70;99.90;;;;;;10307270;28;20043;-89
2022/04/08 21:53:25;;;;;;;3.40;1.33;;;3.80;99.90;;;;;;10315601;28;20042;-89
2022/04/08 21:58:32;;;;;;;2.33;0.85;;;3.80;99.90;;;;;;10163767;28;20149;-89
2022/04/08 22:03:35;;;;;;;2.72;1.25;;;3.90;99.90;;;;;;10320937;28;20096;-90
2022/04/08 22:08:38;;;;;;;3.20;1.23;;;3.90;99.90;;;;;;10228141;28;20089;-90
2022/04/08 22:13:41;;;;;;;4.47;1.60;;;3.90;99.90;;;;;;10303208;28;20041;-90
2022/04/08 22:18:49;;;;;;;4.55;1.38;;;4.00;99.90;;;;;;10297579;28;20041;-91
2022/04/08 22:23:51;;;;;;;2.78;1.67;;;4.00;99.90;;;;;;10239748;28;20089;-90
2022/04/08 22:28:54;;;;;;;3.40;1.45;;;3.90;99.90;;;;;;10324642;28;20051;-91
2022/04/08 22:33:59;;;;;;;3.00;1.25;;;3.90;99.90;;;;;;10288390;28;20519;-91
2022/04/08 22:39:02;;;;;;;3.45;1.42;;;3.90;99.90;;;;;;10295076;28;20057;-91
2022/04/08 22:44:06;;;;;;;3.00;1.20;;;4.00;99.90;;;;;;10283367;28;20077;-91
2022/04/08 22:49:08;;;;;;;3.22;1.13;;;3.90;99.90;;;;;;10300344;28;20061;-90
2022/04/08 22:54:13;;;;;;;4.68;1.10;;;3.90;99.90;;;;;;10262222;28;20153;-90
2022/04/08 22:59:15;;;;;;;5.18;1.05;;;3.90;99.90;;;;;;10326151;28;20042;-90
2022/04/08 23:04:16;;;;;;;3.35;1.15;;;4.00;99.90;;;;;;10332480;28;20072;-89
2022/04/08 23:09:20;;;;;;;4.53;1.13;;;3.90;99.90;;;;;;10342842;28;20058;-90
2022/04/08 23:14:23;;;;;;;9.55;1.35;;;3.80;99.90;;;;;;10321089;28;20061;-91
2022/04/08 23:19:26;;;;;;;6.75;1.48;;;3.80;99.90;;;;;;10276372;28;20064;-90
2022/04/08 23:24:28;;;;;;;4.65;1.40;;;3.80;99.90;;;;;;10305846;28;20051;-91
2022/04/08 23:29:30;;;;;;;4.45;1.65;;;3.60;99.90;;;;;;10313094;28;20120;-90
2022/04/08 23:34:32;;;;;;;6.43;1.60;;;3.70;99.90;;;;;;10302406;28;20054;-90
2022/04/08 23:39:34;;;;;;;6.20;1.38;;;3.70;99.90;;;;;;10332817;28;20089;-91
2022/04/08 23:44:37;;;;;;;8.20;2.20;;;3.70;99.90;;;;;;10339836;28;20504;-90
2022/04/08 23:49:38;;;;;;;9.10;2.30;;;3.70;99.90;;;;;;10333616;28;20073;-91
2022/04/08 23:54:40;;;;;;;4.32;1.88;;;3.80;99.90;;;;;;10316337;28;20374;-90
2022/04/08 23:59:42;;;;;;;6.65;2.22;;;3.90;99.90;;;;;;10321778;28;20065;-91
